sensor_id;sensor_type;location;lat;lon;timestamp;pressure;altitude;pressure_sealevel;temperature;humidity
8320;BME280;4197;42.130;24.746;2022-10-31T00:01:01;99755.25;;;15.50;60.21
8320;BME280;4197;42.130;24.746;2022-10-31T00:03:30;99755.31;;;15.57;59.93
8320;BME280;4197;42.130;24.746;2022-10-31T00:05:58;99753.50;;;15.79;59.16
8320;BME280;4197;42.130;24.746;2022-10-31T00:08:28;99759.00;;;15.83;58.63
8320;BME280;4197;42.130;24.746;2022-10-31T00:10:56;99756.34;;;15.94;58.54
8320;BME280;4197;42.130;24.746;2022-10-31T00:13:24;99748.91;;;15.94;58.01
8320;BME280;4197;42.130;24.746;2022-10-31T00:15:54;99750.16;;;16.08;57.42
8320;BME280;4197;42.130;24.746;2022-10-31T00:18:22;99747.84;;;16.17;57.16
8320;BME280;4197;42.130;24.746;2022-10-31T00:20:58;99743.94;;;16.18;57.07
8320;BME280;4197;42.130;24.746;2022-10-31T00:23:28;99750.19;;;16.11;57.17
8320;BME280;4197;42.130;24.746;2022-10-31T00:26:00;99745.53;;;16.19;57.07
8320;BME280;4197;42.130;24.746;2022-10-31T00:28:28;99749.81;;;16.23;56.75
8320;BME280;4197;42.130;24.746;2022-10-31T00:31:00;99757.25;;;16.16;56.89
8320;BME280;4197;42.130;24.746;2022-10-31T00:33:28;99749.44;;;16.21;57.04
8320;BME280;4197;42.130;24.746;2022-10-31T00:35:57;99750.25;;;16.29;56.57
8320;BME280;4197;42.130;24.746;2022-10-31T00:38:25;99751.78;;;16.23;56.68
8320;BME280;4197;42.130;24.746;2022-10-31T00:40:53;99754.53;;;16.23;56.61
8320;BME280;4197;42.130;24.746;2022-10-31T00:43:22;99754.94;;;16.32;56.67
8320;BME280;4197;42.130;24.746;2022-10-31T00:45:50;99763.97;;;16.40;56.49
8320;BME280;4197;42.130;24.746;2022-10-31T00:48:19;99762.47;;;16.49;56.23
8320;BME280;4197;42.130;24.746;2022-10-31T00:50:47;99758.94;;;16.53;56.24
8320;BME280;4197;42.130;24.746;2022-10-31T00:53:15;99754.66;;;16.62;55.86
8320;BME280;4197;42.130;24.746;2022-10-31T00:55:44;99752.72;;;16.73;55.45
8320;BME280;4197;42.130;24.746;2022-10-31T00:58:12;99743.78;;;16.84;55.23
8320;BME280;4197;42.130;24.746;2022-10-31T01:00:46;99748.09;;;16.95;54.84
8320;BME280;4197;42.130;24.746;2022-10-31T01:03:24;99754.00;;;17.05;54.48
8320;BME280;4197;42.130;24.746;2022-10-31T01:06:02;99744.63;;;17.13;54.17
8320;BME280;4197;42.130;24.746;2022-10-31T01:08:30;99740.31;;;17.19;53.88
8320;BME280;4197;42.130;24.746;2022-10-31T01:11:05;99739.50;;;17.26;53.60
8320;BME280;4197;42.130;24.746;2022-10-31T01:13:36;99736.75;;;17.26;53.72
8320;BME280;4197;42.130;24.746;2022-10-31T01:16:06;99735.59;;;17.37;52.94
8320;BME280;4197;42.130;24.746;2022-10-31T01:18:36;99736.38;;;17.42;53.05
8320;BME280;4197;42.130;24.746;2022-10-31T01:21:06;99739.13;;;17.49;52.60
8320;BME280;4197;42.130;24.746;2022-10-31T01:23:35;99744.59;;;17.49;52.45
8320;BME280;4197;42.130;24.746;2022-10-31T01:26:06;99741.06;;;17.48;52.57
8320;BME280;4197;42.130;24.746;2022-10-31T01:28:36;99738.34;;;17.52;52.34
8320;BME280;4197;42.130;24.746;2022-10-31T01:31:07;99729.72;;;17.43;52.67
8320;BME280;4197;42.130;24.746;2022-10-31T01:33:37;99726.56;;;17.51;52.39
8320;BME280;4197;42.130;24.746;2022-10-31T01:36:14;99724.19;;;17.57;52.04
8320;BME280;4197;42.130;24.746;2022-10-31T01:38:43;99725.78;;;17.58;51.99
8320;BME280;4197;42.130;24.746;2022-10-31T01:41:13;99726.97;;;17.60;51.81
8320;BME280;4197;42.130;24.746;2022-10-31T01:43:43;99733.97;;;17.65;51.63
8320;BME280;4197;42.130;24.746;2022-10-31T01:46:12;99729.31;;;17.66;51.63
8320;BME280;4197;42.130;24.746;2022-10-31T01:48:42;99732.41;;;17.75;51.42
8320;BME280;4197;42.130;24.746;2022-10-31T01:51:11;99741.03;;;17.73;51.33
8320;BME280;4197;42.130;24.746;2022-10-31T01:53:42;99739.47;;;17.69;51.46
8320;BME280;4197;42.130;24.746;2022-10-31T01:56:13;99742.22;;;17.79;50.89
8320;BME280;4197;42.130;24.746;2022-10-31T01:58:45;99732.03;;;17.83;51.00
8320;BME280;4197;42.130;24.746;2022-10-31T02:01:14;99730.84;;;17.88;50.58
8320;BME280;4197;42.130;24.746;2022-10-31T02:03:46;99729.63;;;17.93;50.52
8320;BME280;4197;42.130;24.746;2022-10-31T02:06:27;99731.22;;;17.94;50.42
8320;BME280;4197;42.130;24.746;2022-10-31T02:09:00;99728.09;;;17.92;50.41
8320;BME280;4197;42.130;24.746;2022-10-31T02:11:30;99731.63;;;17.89;50.49
8320;BME280;4197;42.130;24.746;2022-10-31T02:14:00;99721.78;;;17.95;50.12
8320;BME280;4197;42.130;24.746;2022-10-31T02:16:29;99720.63;;;17.96;50.12
8320;BME280;4197;42.130;24.746;2022-10-31T02:18:58;99721.41;;;17.96;50.12
8320;BME280;4197;42.130;24.746;2022-10-31T02:21:34;99709.66;;;17.92;50.10
8320;BME280;4197;42.130;24.746;2022-10-31T02:24:28;99707.34;;;17.76;50.67
8320;BME280;4197;42.130;24.746;2022-10-31T02:27:13;99716.31;;;17.95;50.09
8320;BME280;4197;42.130;24.746;2022-10-31T02:30:05;99710.44;;;17.93;50.28
8320;BME280;4197;42.130;24.746;2022-10-31T02:32:54;99709.28;;;17.94;50.26
8320;BME280;4197;42.130;24.746;2022-10-31T02:35:35;99706.50;;;18.04;49.85
8320;BME280;4197;42.130;24.746;2022-10-31T02:38:13;99719.78;;;18.13;49.37
8320;BME280;4197;42.130;24.746;2022-10-31T02:40:50;99718.19;;;18.19;49.34
8320;BME280;4197;42.130;24.746;2022-10-31T02:43:23;99718.94;;;18.27;49.18
8320;BME280;4197;42.130;24.746;2022-10-31T02:45:58;99720.88;;;18.30;48.89
8320;BME280;4197;42.130;24.746;2022-10-31T02:48:31;99718.88;;;18.34;48.79
8320;BME280;4197;42.130;24.746;2022-10-31T02:51:03;99720.47;;;18.32;48.94
8320;BME280;4197;42.130;24.746;2022-10-31T02:53:32;99732.63;;;18.34;48.86
8320;BME280;4197;42.130;24.746;2022-10-31T02:56:04;99736.13;;;18.38;48.61
8320;BME280;4197;42.130;24.746;2022-10-31T02:58:35;99725.91;;;18.42;48.65
8320;BME280;4197;42.130;24.746;2022-10-31T03:01:20;99735.34;;;18.41;48.64
8320;BME280;4197;42.130;24.746;2022-10-31T03:04:09;99727.50;;;18.36;48.88
8320;BME280;4197;42.130;24.746;2022-10-31T03:06:47;99743.59;;;18.34;48.98
8320;BME280;4197;42.130;24.746;2022-10-31T03:09:22;99747.91;;;18.39;48.86
8320;BME280;4197;42.130;24.746;2022-10-31T03:11:58;99739.22;;;18.47;48.69
8320;BME280;4197;42.130;24.746;2022-10-31T03:14:32;99738.44;;;18.47;48.48
8320;BME280;4197;42.130;24.746;2022-10-31T03:17:06;99752.13;;;18.58;48.30
8320;BME280;4197;42.130;24.746;2022-10-31T03:19:40;99753.69;;;18.62;48.03
8320;BME280;4197;42.130;24.746;2022-10-31T03:22:15;99754.09;;;18.54;48.41
8320;BME280;4197;42.130;24.746;2022-10-31T03:24:44;99763.13;;;18.54;48.48
8320;BME280;4197;42.130;24.746;2022-10-31T03:27:18;99763.09;;;18.61;48.14
8320;BME280;4197;42.130;24.746;2022-10-31T03:29:49;99772.53;;;18.60;48.15
8320;BME280;4197;42.130;24.746;2022-10-31T03:32:20;99778.41;;;18.62;48.26
8320;BME280;4197;42.130;24.746;2022-10-31T03:34:56;99773.69;;;18.59;48.27
8320;BME280;4197;42.130;24.746;2022-10-31T03:37:27;99784.66;;;18.59;48.06
8320;BME280;4197;42.130;24.746;2022-10-31T03:39:58;99790.56;;;18.61;48.04
8320;BME280;4197;42.130;24.746;2022-10-31T03:42:30;99787.84;;;18.54;48.36
8320;BME280;4197;42.130;24.746;2022-10-31T03:45:03;99789.81;;;18.50;48.62
8320;BME280;4197;42.130;24.746;2022-10-31T03:47:33;99801.22;;;18.48;48.79
8320;BME280;4197;42.130;24.746;2022-10-31T03:50:05;99790.63;;;18.47;48.80
8320;BME280;4197;42.130;24.746;2022-10-31T03:52:35;99790.63;;;18.40;48.68
8320;BME280;4197;42.130;24.746;2022-10-31T03:55:07;99798.91;;;18.36;48.93
8320;BME280;4197;42.130;24.746;2022-10-31T03:57:39;99803.66;;;18.21;49.78
8320;BME280;4197;42.130;24.746;2022-10-31T04:00:12;99806.00;;;18.26;49.55
8320;BME280;4197;42.130;24.746;2022-10-31T04:02:45;99809.53;;;18.20;49.79
8320;BME280;4197;42.130;24.746;2022-10-31T04:05:17;99811.91;;;18.14;49.93
8320;BME280;4197;42.130;24.746;2022-10-31T04:07:47;99807.59;;;18.06;50.08
8320;BME280;4197;42.130;24.746;2022-10-31T04:10:19;99808.38;;;18.06;50.10
8320;BME280;4197;42.130;24.746;2022-10-31T04:12:52;99806.44;;;18.07;50.19
8320;BME280;4197;42.130;24.746;2022-10-31T04:15:23;99800.97;;;18.00;50.26
8320;BME280;4197;42.130;24.746;2022-10-31T04:17:55;99806.84;;;17.95;50.50
8320;BME280;4197;42.130;24.746;2022-10-31T04:20:36;99816.66;;;17.89;51.00
8320;BME280;4197;42.130;24.746;2022-10-31T04:23:05;99810.78;;;17.87;50.98
8320;BME280;4197;42.130;24.746;2022-10-31T04:25:41;99819.03;;;17.83;51.16
8320;BME280;4197;42.130;24.746;2022-10-31T04:28:09;99814.31;;;17.83;51.09
8320;BME280;4197;42.130;24.746;2022-10-31T04:30:37;99822.94;;;17.78;51.32
8320;BME280;4197;42.130;24.746;2022-10-31T04:33:05;99817.44;;;17.78;51.28
8320;BME280;4197;42.130;24.746;2022-10-31T04:35:35;99815.88;;;17.74;51.44
8320;BME280;4197;42.130;24.746;2022-10-31T04:38:03;99822.53;;;17.69;51.73
8320;BME280;4197;42.130;24.746;2022-10-31T04:40:31;99819.41;;;17.67;51.83
8320;BME280;4197;42.130;24.746;2022-10-31T04:42:59;99815.09;;;17.70;51.81
8320;BME280;4197;42.130;24.746;2022-10-31T04:45:28;99823.72;;;17.68;51.78
8320;BME280;4197;42.130;24.746;2022-10-31T04:47:56;99824.09;;;17.63;51.84
8320;BME280;4197;42.130;24.746;2022-10-31T04:50:25;99831.94;;;17.61;51.93
8320;BME280;4197;42.130;24.746;2022-10-31T04:53:00;99838.22;;;17.58;52.39
8320;BME280;4197;42.130;24.746;2022-10-31T04:55:30;99849.16;;;17.61;52.08
8320;BME280;4197;42.130;24.746;2022-10-31T04:57:58;99849.56;;;17.64;52.16
8320;BME280;4197;42.130;24.746;2022-10-31T05:00:27;99862.09;;;17.61;52.16
8320;BME280;4197;42.130;24.746;2022-10-31T05:02:58;99853.09;;;17.64;52.14
8320;BME280;4197;42.130;24.746;2022-10-31T05:05:30;99849.97;;;17.66;52.14
8320;BME280;4197;42.130;24.746;2022-10-31T05:08:00;99857.41;;;17.69;52.19
8320;BME280;4197;42.130;24.746;2022-10-31T05:10:29;99866.81;;;17.71;51.98
8320;BME280;4197;42.130;24.746;2022-10-31T05:12:59;99861.31;;;17.68;52.53
8320;BME280;4197;42.130;24.746;2022-10-31T05:15:29;99878.56;;;17.68;52.33
8320;BME280;4197;42.130;24.746;2022-10-31T05:18:03;99876.97;;;17.71;52.36
8320;BME280;4197;42.130;24.746;2022-10-31T05:20:32;99878.56;;;17.72;52.47
8320;BME280;4197;42.130;24.746;2022-10-31T05:23:01;99868.78;;;17.74;52.53
8320;BME280;4197;42.130;24.746;2022-10-31T05:25:29;99875.06;;;17.78;52.21
8320;BME280;4197;42.130;24.746;2022-10-31T05:27:57;99882.13;;;17.83;52.27
8320;BME280;4197;42.130;24.746;2022-10-31T05:30:28;99889.16;;;17.84;52.21
8320;BME280;4197;42.130;24.746;2022-10-31T05:32:57;99884.47;;;17.88;51.95
8320;BME280;4197;42.130;24.746;2022-10-31T05:35:27;99886.03;;;17.93;51.96
8320;BME280;4197;42.130;24.746;2022-10-31T05:37:57;99882.09;;;17.97;52.08
8320;BME280;4197;42.130;24.746;2022-10-31T05:40:27;99890.31;;;18.01;51.96
8320;BME280;4197;42.130;24.746;2022-10-31T05:42:58;99898.56;;;18.04;51.97
8320;BME280;4197;42.130;24.746;2022-10-31T05:45:26;99895.03;;;18.04;51.99
8320;BME280;4197;42.130;24.746;2022-10-31T05:47:56;99908.34;;;18.09;52.12
8320;BME280;4197;42.130;24.746;2022-10-31T05:50:28;99904.84;;;18.01;52.49
8320;BME280;4197;42.130;24.746;2022-10-31T05:52:58;99902.88;;;18.13;52.21
8320;BME280;4197;42.130;24.746;2022-10-31T05:55:29;99912.66;;;18.24;51.73
8320;BME280;4197;42.130;24.746;2022-10-31T05:57:57;99907.94;;;18.28;51.68
8320;BME280;4197;42.130;24.746;2022-10-31T06:00:27;99911.50;;;18.18;52.19
8320;BME280;4197;42.130;24.746;2022-10-31T06:02:59;99915.00;;;18.30;51.62
8320;BME280;4197;42.130;24.746;2022-10-31T06:05:27;99922.06;;;18.27;52.07
8320;BME280;4197;42.130;24.746;2022-10-31T06:07:55;99927.94;;;18.33;51.82
8320;BME280;4197;42.130;24.746;2022-10-31T06:10:26;99922.03;;;18.34;51.84
8320;BME280;4197;42.130;24.746;2022-10-31T06:12:55;99931.47;;;18.33;51.81
8320;BME280;4197;42.130;24.746;2022-10-31T06:15:23;99925.22;;;18.29;52.24
8320;BME280;4197;42.130;24.746;2022-10-31T06:18:02;99927.56;;;18.31;52.31
8320;BME280;4197;42.130;24.746;2022-10-31T06:20:31;99936.19;;;18.25;52.53
8320;BME280;4197;42.130;24.746;2022-10-31T06:22:59;99935.75;;;18.45;52.06
8320;BME280;4197;42.130;24.746;2022-10-31T06:25:29;99938.91;;;18.54;51.73
8320;BME280;4197;42.130;24.746;2022-10-31T06:27:59;99936.16;;;18.54;51.85
8320;BME280;4197;42.130;24.746;2022-10-31T06:30:27;99939.66;;;18.51;52.06
8320;BME280;4197;42.130;24.746;2022-10-31T06:33:01;99947.09;;;18.68;51.55
8320;BME280;4197;42.130;24.746;2022-10-31T06:35:30;99947.06;;;18.86;51.05
8320;BME280;4197;42.130;24.746;2022-10-31T06:37:58;99947.00;;;19.01;50.74
8320;BME280;4197;42.130;24.746;2022-10-31T06:40:26;99954.03;;;19.12;50.40
8320;BME280;4197;42.130;24.746;2022-10-31T06:42:59;99958.31;;;19.24;50.32
8320;BME280;4197;42.130;24.746;2022-10-31T06:45:28;99955.41;;;19.49;49.58
8320;BME280;4197;42.130;24.746;2022-10-31T06:47:57;99952.59;;;19.64;49.07
8320;BME280;4197;42.130;24.746;2022-10-31T06:50:45;99945.81;;;19.82;48.59
8320;BME280;4197;42.130;24.746;2022-10-31T06:53:13;99944.94;;;19.93;48.32
8320;BME280;4197;42.130;24.746;2022-10-31T06:55:42;99951.22;;;19.93;48.13
8320;BME280;4197;42.130;24.746;2022-10-31T06:58:12;99942.63;;;19.84;48.50
8320;BME280;4197;42.130;24.746;2022-10-31T07:00:40;99944.94;;;19.89;48.09
8320;BME280;4197;42.130;24.746;2022-10-31T07:03:10;99945.66;;;20.00;47.76
8320;BME280;4197;42.130;24.746;2022-10-31T07:05:39;99946.53;;;19.90;48.11
8320;BME280;4197;42.130;24.746;2022-10-31T07:08:10;99949.22;;;20.01;47.71
8320;BME280;4197;42.130;24.746;2022-10-31T07:10:40;99951.97;;;19.97;47.94
8320;BME280;4197;42.130;24.746;2022-10-31T07:13:13;99953.09;;;20.03;47.77
8320;BME280;4197;42.130;24.746;2022-10-31T07:15:42;99946.81;;;20.07;47.62
8320;BME280;4197;42.130;24.746;2022-10-31T07:18:11;99948.41;;;20.00;48.20
8320;BME280;4197;42.130;24.746;2022-10-31T07:20:40;99947.94;;;20.09;47.74
8320;BME280;4197;42.130;24.746;2022-10-31T07:23:09;99953.47;;;20.05;48.03
8320;BME280;4197;42.130;24.746;2022-10-31T07:25:37;99945.56;;;20.11;47.86
8320;BME280;4197;42.130;24.746;2022-10-31T07:28:06;99947.84;;;20.20;47.60
8320;BME280;4197;42.130;24.746;2022-10-31T07:30:35;99951.72;;;20.30;47.18
8320;BME280;4197;42.130;24.746;2022-10-31T07:33:04;99951.72;;;20.30;47.27
8320;BME280;4197;42.130;24.746;2022-10-31T07:35:32;99949.44;;;20.21;47.56
8320;BME280;4197;42.130;24.746;2022-10-31T07:38:08;99951.19;;;20.42;46.93
8320;BME280;4197;42.130;24.746;2022-10-31T07:40:37;99955.44;;;20.50;46.64
8320;BME280;4197;42.130;24.746;2022-10-31T07:43:05;99949.16;;;20.49;46.58
8320;BME280;4197;42.130;24.746;2022-10-31T07:45:41;99951.63;;;20.37;46.96
8320;BME280;4197;42.130;24.746;2022-10-31T07:48:09;99944.66;;;20.25;47.68
8320;BME280;4197;42.130;24.746;2022-10-31T07:50:37;99947.06;;;20.19;47.55
8320;BME280;4197;42.130;24.746;2022-10-31T07:53:07;99942.69;;;20.25;47.54
8320;BME280;4197;42.130;24.746;2022-10-31T07:55:36;99952.81;;;20.36;47.44
8320;BME280;4197;42.130;24.746;2022-10-31T07:58:06;99952.28;;;20.52;46.89
8320;BME280;4197;42.130;24.746;2022-10-31T08:00:35;99945.91;;;20.62;46.64
8320;BME280;4197;42.130;24.746;2022-10-31T08:03:07;99942.03;;;20.56;47.04
8320;BME280;4197;42.130;24.746;2022-10-31T08:05:36;99939.88;;;20.74;46.83
8320;BME280;4197;42.130;24.746;2022-10-31T08:08:05;99944.19;;;21.06;45.58
8320;BME280;4197;42.130;24.746;2022-10-31T08:10:34;99944.59;;;21.08;45.64
8320;BME280;4197;42.130;24.746;2022-10-31T08:13:04;99951.94;;;21.18;45.15
8320;BME280;4197;42.130;24.746;2022-10-31T08:15:33;99937.31;;;21.21;45.09
8320;BME280;4197;42.130;24.746;2022-10-31T08:18:11;99938.34;;;21.04;45.73
8320;BME280;4197;42.130;24.746;2022-10-31T08:20:40;99945.22;;;21.19;45.32
8320;BME280;4197;42.130;24.746;2022-10-31T08:23:10;99943.72;;;21.14;45.47
8320;BME280;4197;42.130;24.746;2022-10-31T08:25:39;99950.19;;;21.31;44.89
8320;BME280;4197;42.130;24.746;2022-10-31T08:28:10;99947.22;;;21.49;44.36
8320;BME280;4197;42.130;24.746;2022-10-31T08:30:40;99943.41;;;21.67;43.60
8320;BME280;4197;42.130;24.746;2022-10-31T08:33:12;99948.50;;;21.68;43.54
8320;BME280;4197;42.130;24.746;2022-10-31T08:35:41;99942.38;;;21.84;43.47
8320;BME280;4197;42.130;24.746;2022-10-31T08:38:10;99947.44;;;21.86;43.46
8320;BME280;4197;42.130;24.746;2022-10-31T08:40:38;99941.09;;;21.89;43.55
8320;BME280;4197;42.130;24.746;2022-10-31T08:43:10;99941.88;;;22.13;42.32
8320;BME280;4197;42.130;24.746;2022-10-31T08:45:39;99942.28;;;22.11;42.02
8320;BME280;4197;42.130;24.746;2022-10-31T08:48:13;99945.88;;;22.35;41.27
8320;BME280;4197;42.130;24.746;2022-10-31T08:50:41;99946.63;;;22.36;41.44
8320;BME280;4197;42.130;24.746;2022-10-31T08:53:12;99941.66;;;22.51;41.13
8320;BME280;4197;42.130;24.746;2022-10-31T08:55:41;99942.66;;;22.60;41.08
8320;BME280;4197;42.130;24.746;2022-10-31T08:58:13;99949.75;;;22.81;40.17
8320;BME280;4197;42.130;24.746;2022-10-31T09:00:43;99947.28;;;22.87;40.20
8320;BME280;4197;42.130;24.746;2022-10-31T09:03:15;99951.09;;;22.93;40.12
8320;BME280;4197;42.130;24.746;2022-10-31T09:05:43;99946.00;;;23.11;40.18
8320;BME280;4197;42.130;24.746;2022-10-31T09:08:12;99947.69;;;23.05;39.80
8320;BME280;4197;42.130;24.746;2022-10-31T09:10:43;99955.06;;;23.32;38.58
8320;BME280;4197;42.130;24.746;2022-10-31T09:13:13;99958.91;;;23.18;38.90
8320;BME280;4197;42.130;24.746;2022-10-31T09:15:45;99950.75;;;23.11;39.17
8320;BME280;4197;42.130;24.746;2022-10-31T09:18:17;99949.97;;;23.10;39.65
8320;BME280;4197;42.130;24.746;2022-10-31T09:20:46;99952.09;;;23.23;39.71
8320;BME280;4197;42.130;24.746;2022-10-31T09:23:16;99950.78;;;23.27;39.30
8320;BME280;4197;42.130;24.746;2022-10-31T09:25:46;99949.72;;;23.41;38.51
8320;BME280;4197;42.130;24.746;2022-10-31T09:28:18;99944.69;;;23.36;38.16
8320;BME280;4197;42.130;24.746;2022-10-31T09:30:47;99942.63;;;23.40;38.84
8320;BME280;4197;42.130;24.746;2022-10-31T09:33:17;99934.16;;;23.47;39.38
8320;BME280;4197;42.130;24.746;2022-10-31T09:35:47;99934.03;;;23.71;38.48
8320;BME280;4197;42.130;24.746;2022-10-31T09:38:17;99930.56;;;23.67;38.62
8320;BME280;4197;42.130;24.746;2022-10-31T09:40:48;99941.69;;;23.63;37.95
8320;BME280;4197;42.130;24.746;2022-10-31T09:43:22;99934.97;;;23.64;38.33
8320;BME280;4197;42.130;24.746;2022-10-31T09:46:01;99937.66;;;23.68;38.41
8320;BME280;4197;42.130;24.746;2022-10-31T09:48:49;99936.09;;;23.67;38.54
8320;BME280;4197;42.130;24.746;2022-10-31T09:51:23;99935.44;;;23.79;38.30
8320;BME280;4197;42.130;24.746;2022-10-31T09:53:59;99934.88;;;23.68;38.86
8320;BME280;4197;42.130;24.746;2022-10-31T09:56:31;99935.59;;;23.88;38.29
8320;BME280;4197;42.130;24.746;2022-10-31T09:59:03;99934.97;;;23.97;37.30
8320;BME280;4197;42.130;24.746;2022-10-31T10:01:38;99934.97;;;23.80;37.61
8320;BME280;4197;42.130;24.746;2022-10-31T10:04:36;99935.28;;;23.66;36.99
8320;BME280;4197;42.130;24.746;2022-10-31T10:07:13;99930.81;;;23.56;37.36
8320;BME280;4197;42.130;24.746;2022-10-31T10:09:48;99926.38;;;23.42;37.94
8320;BME280;4197;42.130;24.746;2022-10-31T10:12:21;99923.56;;;23.26;38.85
8320;BME280;4197;42.130;24.746;2022-10-31T10:15:20;99917.00;;;23.20;39.13
8320;BME280;4197;42.130;24.746;2022-10-31T10:17:58;99915.38;;;23.38;38.40
8320;BME280;4197;42.130;24.746;2022-10-31T10:20:36;99910.03;;;23.48;38.71
8320;BME280;4197;42.130;24.746;2022-10-31T10:23:23;99912.28;;;23.69;38.57
8320;BME280;4197;42.130;24.746;2022-10-31T10:26:01;99908.97;;;23.78;37.92
8320;BME280;4197;42.130;24.746;2022-10-31T10:28:39;99899.16;;;24.06;36.83
8320;BME280;4197;42.130;24.746;2022-10-31T10:31:12;99899.47;;;24.08;36.86
8320;BME280;4197;42.130;24.746;2022-10-31T10:33:45;99898.28;;;24.09;36.95
8320;BME280;4197;42.130;24.746;2022-10-31T10:36:22;99891.53;;;24.10;36.63
8320;BME280;4197;42.130;24.746;2022-10-31T10:38:55;99883.84;;;24.01;37.24
8320;BME280;4197;42.130;24.746;2022-10-31T10:41:31;99878.53;;;24.07;37.30
8320;BME280;4197;42.130;24.746;2022-10-31T10:44:00;99887.59;;;24.24;36.58
8320;BME280;4197;42.130;24.746;2022-10-31T10:46:36;99883.63;;;24.25;37.02
8320;BME280;4197;42.130;24.746;2022-10-31T10:49:30;99879.19;;;24.27;36.42
8320;BME280;4197;42.130;24.746;2022-10-31T10:52:08;99884.06;;;24.23;36.58
8320;BME280;4197;42.130;24.746;2022-10-31T10:55:08;99877.22;;;24.28;36.29
8320;BME280;4197;42.130;24.746;2022-10-31T10:57:59;99879.63;;;24.26;36.24
8320;BME280;4197;42.130;24.746;2022-10-31T11:00:30;99878.50;;;24.23;36.32
8320;BME280;4197;42.130;24.746;2022-10-31T11:02:59;99881.00;;;24.34;36.49
8320;BME280;4197;42.130;24.746;2022-10-31T11:05:33;99868.78;;;24.32;36.03
8320;BME280;4197;42.130;24.746;2022-10-31T11:08:05;99877.59;;;24.43;36.20
8320;BME280;4197;42.130;24.746;2022-10-31T11:10:34;99878.56;;;24.53;36.31
8320;BME280;4197;42.130;24.746;2022-10-31T11:13:14;99865.41;;;24.69;35.73
8320;BME280;4197;42.130;24.746;2022-10-31T11:15:53;99864.31;;;24.92;35.45
8320;BME280;4197;42.130;24.746;2022-10-31T11:18:25;99862.00;;;25.04;35.71
8320;BME280;4197;42.130;24.746;2022-10-31T11:20:56;99860.75;;;25.05;35.42
8320;BME280;4197;42.130;24.746;2022-10-31T11:23:27;99858.09;;;25.01;34.76
8320;BME280;4197;42.130;24.746;2022-10-31T11:25:57;99862.88;;;25.01;34.93
8320;BME280;4197;42.130;24.746;2022-10-31T11:28:27;99856.66;;;24.97;34.81
8320;BME280;4197;42.130;24.746;2022-10-31T11:30:59;99853.88;;;24.84;34.85
8320;BME280;4197;42.130;24.746;2022-10-31T11:33:30;99852.53;;;24.76;35.01
8320;BME280;4197;42.130;24.746;2022-10-31T11:36:01;99853.75;;;24.87;34.64
8320;BME280;4197;42.130;24.746;2022-10-31T11:38:35;99847.00;;;25.01;34.47
8320;BME280;4197;42.130;24.746;2022-10-31T11:41:11;99848.56;;;25.02;34.78
8320;BME280;4197;42.130;24.746;2022-10-31T11:43:46;99842.34;;;24.98;34.80
8320;BME280;4197;42.130;24.746;2022-10-31T11:46:20;99847.22;;;24.94;34.86
8320;BME280;4197;42.130;24.746;2022-10-31T11:48:50;99837.91;;;25.13;34.36
8320;BME280;4197;42.130;24.746;2022-10-31T11:51:21;99835.13;;;24.88;34.78
8320;BME280;4197;42.130;24.746;2022-10-31T11:53:53;99839.09;;;24.74;34.89
8320;BME280;4197;42.130;24.746;2022-10-31T11:56:37;99847.41;;;24.74;35.38
8320;BME280;4197;42.130;24.746;2022-10-31T11:59:17;99840.75;;;24.71;35.10
8320;BME280;4197;42.130;24.746;2022-10-31T12:01:47;99837.84;;;24.62;35.64
8320;BME280;4197;42.130;24.746;2022-10-31T12:04:17;99829.50;;;24.49;35.34
8320;BME280;4197;42.130;24.746;2022-10-31T12:06:46;99834.28;;;24.49;35.77
8320;BME280;4197;42.130;24.746;2022-10-31T12:09:27;99831.31;;;24.56;35.72
8320;BME280;4197;42.130;24.746;2022-10-31T12:12:05;99833.09;;;24.63;35.83
8320;BME280;4197;42.130;24.746;2022-10-31T12:14:43;99838.44;;;24.70;35.16
8320;BME280;4197;42.130;24.746;2022-10-31T12:17:16;99836.56;;;24.80;34.99
8320;BME280;4197;42.130;24.746;2022-10-31T12:19:55;99835.56;;;24.99;34.73
8320;BME280;4197;42.130;24.746;2022-10-31T12:22:32;99830.47;;;24.85;35.12
8320;BME280;4197;42.130;24.746;2022-10-31T12:25:21;99838.69;;;25.01;35.08
8320;BME280;4197;42.130;24.746;2022-10-31T12:28:07;99833.94;;;25.27;34.24
8320;BME280;4197;42.130;24.746;2022-10-31T12:30:49;99828.41;;;25.14;34.79
8320;BME280;4197;42.130;24.746;2022-10-31T12:33:40;99828.50;;;25.11;34.67
8320;BME280;4197;42.130;24.746;2022-10-31T12:36:33;99832.03;;;25.11;34.74
8320;BME280;4197;42.130;24.746;2022-10-31T12:39:24;99833.94;;;25.40;34.12
8320;BME280;4197;42.130;24.746;2022-10-31T12:42:01;99837.50;;;25.28;34.40
8320;BME280;4197;42.130;24.746;2022-10-31T12:44:53;99824.31;;;25.19;34.32
8320;BME280;4197;42.130;24.746;2022-10-31T12:47:43;99823.41;;;25.22;34.07
8320;BME280;4197;42.130;24.746;2022-10-31T12:50:31;99823.63;;;25.15;34.33
8320;BME280;4197;42.130;24.746;2022-10-31T12:53:16;99827.69;;;25.10;35.01
8320;BME280;4197;42.130;24.746;2022-10-31T12:55:58;99824.59;;;25.08;34.73
8320;BME280;4197;42.130;24.746;2022-10-31T12:58:37;99825.94;;;25.04;34.85
8320;BME280;4197;42.130;24.746;2022-10-31T13:01:11;99824.47;;;25.12;34.65
8320;BME280;4197;42.130;24.746;2022-10-31T13:03:47;99823.97;;;25.17;34.42
8320;BME280;4197;42.130;24.746;2022-10-31T13:06:19;99823.72;;;25.11;34.67
8320;BME280;4197;42.130;24.746;2022-10-31T13:08:52;99818.97;;;25.25;34.39
8320;BME280;4197;42.130;24.746;2022-10-31T13:11:23;99822.06;;;25.14;34.39
8320;BME280;4197;42.130;24.746;2022-10-31T13:13:59;99824.41;;;25.15;34.62
8320;BME280;4197;42.130;24.746;2022-10-31T13:16:34;99824.53;;;25.25;34.48
8320;BME280;4197;42.130;24.746;2022-10-31T13:19:07;99828.72;;;25.29;34.50
8320;BME280;4197;42.130;24.746;2022-10-31T13:21:41;99822.28;;;25.32;34.52
8320;BME280;4197;42.130;24.746;2022-10-31T13:24:16;99823.72;;;25.37;34.46
8320;BME280;4197;42.130;24.746;2022-10-31T13:26:48;99813.25;;;25.54;33.55
8320;BME280;4197;42.130;24.746;2022-10-31T13:29:24;99820.75;;;25.66;33.72
8320;BME280;4197;42.130;24.746;2022-10-31T13:31:59;99816.31;;;25.69;33.87
8320;BME280;4197;42.130;24.746;2022-10-31T13:34:31;99816.84;;;25.89;33.36
8320;BME280;4197;42.130;24.746;2022-10-31T13:37:05;99819.31;;;25.87;33.28
8320;BME280;4197;42.130;24.746;2022-10-31T13:39:51;99817.88;;;25.70;33.91